createdAt,value
2019-02-27T00:01:30.315Z,56.50
2019-02-27T00:04:13.774Z,55.90
2019-02-27T00:06:56.206Z,55.20
2019-02-27T00:09:37.943Z,56.80
2019-02-27T00:12:20.026Z,56.50
2019-02-27T00:15:04.934Z,57.00
2019-02-27T00:17:45.582Z,57.80
2019-02-27T00:20:27.682Z,57.40
2019-02-27T00:23:09.622Z,57.50
2019-02-27T00:25:51.503Z,57.50
2019-02-27T00:28:33.821Z,58.40
2019-02-27T00:31:16.249Z,58.60
2019-02-27T00:33:59.838Z,58.00
2019-02-27T00:36:44.784Z,59.10
2019-02-27T00:39:25.914Z,59.50
2019-02-27T00:42:08.514Z,60.00
2019-02-27T00:44:38.794Z,61.50
2019-02-27T00:47:29.561Z,60.80
2019-02-27T00:50:12.976Z,61.50
2019-02-27T00:52:54.954Z,61.80
2019-02-27T00:55:39.366Z,62.30
2019-02-27T00:58:20.830Z,62.60
2019-02-27T01:01:03.063Z,62.60
2019-02-27T01:03:45.218Z,63.60
2019-02-27T01:06:27.122Z,64.10
2019-02-27T01:09:07.538Z,64.90
2019-02-27T01:11:56.897Z,64.90
2019-02-27T01:14:39.962Z,65.20
2019-02-27T01:17:23.826Z,65.80
2019-02-27T01:20:05.574Z,66.30
2019-02-27T01:22:47.842Z,66.10
2019-02-27T01:25:29.716Z,66.00
2019-02-27T01:28:11.678Z,66.70
2019-02-27T01:30:53.914Z,67.40
2019-02-27T01:33:38.230Z,68.20
2019-02-27T01:36:24.223Z,68.60
2019-02-27T01:39:03.752Z,69.50
2019-02-27T01:41:45.902Z,69.10
2019-02-27T01:44:27.828Z,69.50
2019-02-27T01:47:09.910Z,69.70
2019-02-27T01:49:52.414Z,70.40
2019-02-27T01:52:34.627Z,71.00
2019-02-27T01:55:17.050Z,71.80
2019-02-27T01:57:58.782Z,72.70
2019-02-27T02:00:40.414Z,73.10
2019-02-27T02:03:22.646Z,72.70
2019-02-27T02:06:04.906Z,73.20
2019-02-27T02:08:48.256Z,74.20
2019-02-27T02:11:32.749Z,74.60
2019-02-27T02:14:14.973Z,75.20
2019-02-27T02:16:56.827Z,76.30
2019-02-27T02:19:38.665Z,76.70
2019-02-27T02:22:20.411Z,77.20
2019-02-27T02:25:02.075Z,77.60
2019-02-27T02:31:33.510Z,76.50
2019-02-27T02:34:43.499Z,76.80
2019-02-27T02:37:27.100Z,77.00
2019-02-27T02:40:09.545Z,76.70
2019-02-27T02:42:52.171Z,76.50
2019-02-27T02:45:33.959Z,76.60
2019-02-27T02:48:16.359Z,75.10
2019-02-27T02:50:58.978Z,74.00
2019-02-27T02:53:40.902Z,73.50
2019-02-27T02:56:24.868Z,72.80
2019-02-27T02:59:06.372Z,71.30
2019-02-27T03:01:49.329Z,70.40
2019-02-27T03:04:32.070Z,70.50
2019-02-27T03:07:14.138Z,70.20
2019-02-27T03:09:56.375Z,70.70
2019-02-27T03:16:05.956Z,74.70
2019-02-27T03:18:49.135Z,75.50
2019-02-27T03:21:31.358Z,76.50
2019-02-27T03:24:13.047Z,76.50
2019-02-27T03:26:54.955Z,77.00
2019-02-27T03:29:37.008Z,78.00
2019-02-27T03:32:20.323Z,77.10
2019-02-27T03:35:29.443Z,77.20
2019-02-27T03:38:12.841Z,76.60
2019-02-27T03:40:54.461Z,76.70
2019-02-27T03:43:36.359Z,77.20
2019-02-27T03:46:18.681Z,77.80
2019-02-27T03:49:03.785Z,76.60
2019-02-27T03:51:43.919Z,78.80
2019-02-27T03:54:25.728Z,78.30
2019-02-27T03:57:07.595Z,78.90
2019-02-27T03:59:49.415Z,77.20
2019-02-27T04:05:58.672Z,74.60
2019-02-27T04:08:44.810Z,76.50
2019-02-27T04:11:25.935Z,76.00
2019-02-27T04:14:08.039Z,73.10
2019-02-27T04:19:31.460Z,72.00
2019-02-27T04:22:13.527Z,72.20
2019-02-27T04:24:56.920Z,71.60
2019-02-27T04:27:39.028Z,72.10
2019-02-27T04:30:21.022Z,73.30
2019-02-27T04:33:02.723Z,73.30
2019-02-27T04:35:44.514Z,73.80
2019-02-27T04:38:27.641Z,74.70
2019-02-27T04:41:10.068Z,74.30
2019-02-27T04:43:52.037Z,75.10
2019-02-27T04:46:34.038Z,75.80
2019-02-27T04:49:16.245Z,77.00
2019-02-27T04:51:58.024Z,77.20
2019-02-27T04:54:41.654Z,76.90
2019-02-27T04:57:24.126Z,76.60
2019-02-27T05:00:06.218Z,76.60
2019-02-27T05:02:50.460Z,76.90
2019-02-27T05:05:31.916Z,76.90
2019-02-27T05:08:14.053Z,77.40
2019-02-27T05:10:56.005Z,77.20
2019-02-27T05:13:38.474Z,77.00
2019-02-27T05:16:20.421Z,76.50
2019-02-27T05:19:04.072Z,76.40
2019-02-27T05:21:46.418Z,76.30
2019-02-27T05:24:28.646Z,77.20
2019-02-27T05:27:10.879Z,77.10
2019-02-27T05:29:53.092Z,77.10
2019-02-27T05:32:38.322Z,75.80
2019-02-27T05:35:23.585Z,74.30
2019-02-27T05:38:05.235Z,74.30
2019-02-27T05:40:47.583Z,74.70
2019-02-27T05:43:30.446Z,73.70
2019-02-27T05:46:12.542Z,73.20
2019-02-27T05:48:55.086Z,71.80
2019-02-27T05:51:36.808Z,71.60
2019-02-27T05:54:18.472Z,72.10
2019-02-27T05:57:00.127Z,72.50
2019-02-27T05:59:41.943Z,73.20
2019-02-27T06:02:25.513Z,73.20
2019-02-27T06:05:08.086Z,72.70
2019-02-27T06:07:50.390Z,71.50
2019-02-27T06:10:33.054Z,70.20
2019-02-27T06:13:15.258Z,66.80
2019-02-27T06:16:02.864Z,63.90
2019-02-27T06:18:41.506Z,61.70
2019-02-27T06:21:23.372Z,59.50
2019-02-27T06:24:05.767Z,58.00
2019-02-27T06:26:49.566Z,56.40
2019-02-27T06:29:31.954Z,55.00
2019-02-27T06:32:14.090Z,54.10
2019-02-27T06:34:59.109Z,52.70
2019-02-27T06:37:39.477Z,55.00
2019-02-27T06:40:21.297Z,53.00
2019-02-27T06:43:03.672Z,51.10
2019-02-27T06:45:46.625Z,50.60
2019-02-27T06:48:29.325Z,48.30
2019-02-27T06:51:11.647Z,47.90
2019-02-27T06:53:53.444Z,47.10
2019-02-27T06:56:35.858Z,46.10
2019-02-27T06:59:18.249Z,44.90
2019-02-27T07:02:00.288Z,44.20
2019-02-27T07:04:42.266Z,44.50
2019-02-27T07:07:23.996Z,44.50
2019-02-27T07:10:05.889Z,44.70
2019-02-27T07:12:48.099Z,43.30
2019-02-27T07:15:29.850Z,44.30
2019-02-27T07:18:12.331Z,43.80
2019-02-27T07:20:55.635Z,44.00
2019-02-27T07:23:38.567Z,43.60
2019-02-27T07:26:20.802Z,42.60
2019-02-27T07:29:02.927Z,43.30
2019-02-27T07:31:33.294Z,43.40
2019-02-27T07:34:24.070Z,43.00
2019-02-27T07:37:10.448Z,42.60
2019-02-27T07:39:39.998Z,43.40
2019-02-27T07:42:31.906Z,42.30
2019-02-27T07:48:01.974Z,41.30
2019-02-27T07:50:51.342Z,39.20
2019-02-27T07:53:33.805Z,39.40
2019-02-27T07:56:15.923Z,38.60
2019-02-27T07:58:57.898Z,35.60
2019-02-27T08:01:43.756Z,35.40
2019-02-27T08:04:23.462Z,33.50
2019-02-27T08:09:47.627Z,34.10
2019-02-27T08:12:29.854Z,33.50
2019-02-27T08:15:13.533Z,30.80
2019-02-27T08:17:57.885Z,31.00
2019-02-27T08:20:38.950Z,30.00
2019-02-27T08:23:20.646Z,30.30
2019-02-27T08:26:04.784Z,30.00
2019-02-27T08:28:46.183Z,31.10
2019-02-27T08:31:28.885Z,28.90
2019-02-27T08:34:10.763Z,28.80
2019-02-27T08:36:53.322Z,29.60
2019-02-27T08:39:34.998Z,29.50
2019-02-27T08:42:16.923Z,29.10
2019-02-27T08:44:58.923Z,29.00
2019-02-27T08:47:43.187Z,28.50
2019-02-27T08:50:24.170Z,27.80
2019-02-27T08:53:06.550Z,27.80
2019-02-27T08:55:48.746Z,28.00
2019-02-27T08:58:32.893Z,27.80
2019-02-27T09:01:14.262Z,28.80
2019-02-27T09:03:56.515Z,27.70
2019-02-27T09:06:38.515Z,27.70
2019-02-27T09:09:20.629Z,28.20
2019-02-27T09:12:03.169Z,28.70
2019-02-27T09:14:45.737Z,33.80
2019-02-27T09:17:27.924Z,35.70
2019-02-27T09:20:09.534Z,38.80
2019-02-27T09:22:51.647Z,38.90
2019-02-27T09:25:33.470Z,39.40
2019-02-27T09:28:15.492Z,40.00
2019-02-27T09:30:57.407Z,39.20
2019-02-27T09:33:39.608Z,39.50
2019-02-27T09:36:21.578Z,40.90
2019-02-27T09:39:04.347Z,40.60
2019-02-27T09:41:47.070Z,41.50
2019-02-27T09:44:29.610Z,41.00
2019-02-27T09:47:11.508Z,41.90
2019-02-27T09:49:52.258Z,42.00
2019-02-27T09:52:41.594Z,41.10
2019-02-27T09:55:24.698Z,42.40
2019-02-27T09:58:10.065Z,41.60
2019-02-27T10:00:50.253Z,41.90
2019-02-27T10:03:32.946Z,41.90
2019-02-27T10:06:13.380Z,41.30
2019-02-27T10:09:02.790Z,40.10
2019-02-27T10:11:46.547Z,40.30
2019-02-27T10:14:28.863Z,40.40
2019-02-27T10:17:11.017Z,42.10
2019-02-27T10:19:53.059Z,41.50
2019-02-27T10:22:35.067Z,41.50
2019-02-27T10:25:16.682Z,40.50
2019-02-27T10:28:03.285Z,40.50
2019-02-27T10:30:42.286Z,41.60
2019-02-27T10:33:25.835Z,41.00
2019-02-27T10:36:08.083Z,41.30
2019-02-27T10:38:50.212Z,41.60
2019-02-27T10:41:32.746Z,40.80
2019-02-27T10:44:15.366Z,41.60
2019-02-27T10:47:00.046Z,41.70
2019-02-27T10:49:40.946Z,40.60
2019-02-27T10:52:24.283Z,42.30
2019-02-27T10:55:04.743Z,42.50
2019-02-27T10:57:54.138Z,42.10
2019-02-27T11:00:38.014Z,43.40
2019-02-27T11:03:19.982Z,43.40
2019-02-27T11:06:01.906Z,42.40
2019-02-27T11:08:43.985Z,43.90
2019-02-27T11:11:26.311Z,45.10
2019-02-27T11:14:08.210Z,44.60
2019-02-27T11:16:50.403Z,44.70
2019-02-27T11:19:34.815Z,44.40
2019-02-27T11:22:16.374Z,45.50
2019-02-27T11:24:58.451Z,45.20
2019-02-27T11:27:40.670Z,45.20
2019-02-27T11:30:22.779Z,46.50
2019-02-27T11:33:05.169Z,44.30
2019-02-27T11:35:47.155Z,44.50
2019-02-27T11:38:29.167Z,44.40
2019-02-27T11:41:14.972Z,43.80
2019-02-27T11:43:54.931Z,44.40
2019-02-27T11:46:38.226Z,44.90
2019-02-27T11:49:20.938Z,44.90
2019-02-27T11:52:02.603Z,45.10
2019-02-27T11:54:45.131Z,41.70
2019-02-27T11:57:27.403Z,42.20
2019-02-27T12:00:13.607Z,42.90
2019-02-27T12:02:55.415Z,42.40
2019-02-27T12:05:37.408Z,41.50
2019-02-27T12:08:19.434Z,40.40
2019-02-27T12:11:01.359Z,40.30
2019-02-27T12:13:43.358Z,39.80
2019-02-27T12:16:25.399Z,37.10
2019-02-27T12:19:08.709Z,37.30
2019-02-27T12:21:51.426Z,34.10
2019-02-27T12:24:33.728Z,27.60
2019-02-27T12:27:25.730Z,30.00
2019-02-27T12:30:03.031Z,35.20
2019-02-27T12:32:44.085Z,35.40
2019-02-27T12:35:25.588Z,30.40
2019-02-27T12:38:14.981Z,29.50
2019-02-27T12:40:59.096Z,32.50
2019-02-27T12:43:40.803Z,35.40
2019-02-27T12:46:23.080Z,38.20
2019-02-27T12:49:05.170Z,37.60
2019-02-27T12:51:47.350Z,36.70
2019-02-27T12:54:29.494Z,38.10
2019-02-27T12:57:12.026Z,34.60
2019-02-27T12:59:53.731Z,37.20
2019-02-27T13:02:36.041Z,38.10
2019-02-27T13:05:18.378Z,37.60
2019-02-27T13:08:00.154Z,39.00
2019-02-27T13:10:42.795Z,39.40
2019-02-27T13:13:25.942Z,38.90
2019-02-27T13:16:07.867Z,40.20
2019-02-27T13:18:50.343Z,40.50
2019-02-27T13:21:32.223Z,39.80
2019-02-27T13:24:15.408Z,39.20
2019-02-27T13:26:57.776Z,39.90
2019-02-27T13:29:40.270Z,40.20
2019-02-27T13:32:26.407Z,39.80
2019-02-27T13:35:06.094Z,38.60
2019-02-27T13:37:48.130Z,39.30
2019-02-27T13:40:34.944Z,40.70
2019-02-27T13:43:14.175Z,41.00
2019-02-27T13:45:55.847Z,38.90
2019-02-27T13:48:39.810Z,37.90
2019-02-27T13:51:21.498Z,37.10
2019-02-27T13:54:03.867Z,37.10
2019-02-27T13:56:45.874Z,37.00
2019-02-27T13:59:27.578Z,37.20
2019-02-27T14:02:11.357Z,35.90
2019-02-27T14:04:53.762Z,30.30
2019-02-27T14:07:36.478Z,28.70
2019-02-27T14:10:20.511Z,26.00
2019-02-27T14:13:01.743Z,25.20
2019-02-27T14:15:43.576Z,24.80
2019-02-27T14:18:25.459Z,25.50
2019-02-27T14:21:07.373Z,24.30
2019-02-27T14:23:49.447Z,24.30
2019-02-27T14:26:31.542Z,24.00
2019-02-27T14:29:14.117Z,24.70
2019-02-27T14:31:56.546Z,24.20
2019-02-27T14:34:38.907Z,24.50
2019-02-27T14:37:20.874Z,23.60
2019-02-27T14:40:04.487Z,23.60
2019-02-27T14:42:46.531Z,24.20
2019-02-27T14:45:28.712Z,24.20
2019-02-27T14:48:10.777Z,24.50
2019-02-27T14:50:52.645Z,24.40
2019-02-27T14:53:34.821Z,24.50
2019-02-27T14:56:16.539Z,23.90
2019-02-27T14:58:58.826Z,23.90
2019-02-27T15:01:41.397Z,24.40
2019-02-27T15:04:23.398Z,24.30
2019-02-27T15:07:05.842Z,26.30
2019-02-27T15:09:48.154Z,24.70
2019-02-27T15:12:29.935Z,24.40
2019-02-27T15:15:12.203Z,24.00
2019-02-27T15:17:54.684Z,24.00
2019-02-27T15:20:40.160Z,24.10
2019-02-27T15:23:20.393Z,24.60
2019-02-27T15:26:02.558Z,23.70
2019-02-27T15:28:44.181Z,24.10
2019-02-27T15:31:26.218Z,24.40
2019-02-27T15:34:06.798Z,24.30
2019-02-27T15:36:56.225Z,24.30
2019-02-27T15:39:39.726Z,24.30
2019-02-27T15:42:21.705Z,24.50
2019-02-27T15:45:09.186Z,24.90
2019-02-27T15:47:47.350Z,24.80
2019-02-27T15:50:29.274Z,24.80
2019-02-27T15:53:14.615Z,24.60
2019-02-27T15:55:55.667Z,24.70
2019-02-27T15:58:37.683Z,24.80
2019-02-27T16:01:19.734Z,25.00
2019-02-27T16:04:01.956Z,25.40
2019-02-27T16:06:43.600Z,25.80
2019-02-27T16:09:25.354Z,26.10
2019-02-27T16:12:07.031Z,26.30
2019-02-27T16:14:48.726Z,26.60
2019-02-27T16:17:31.959Z,26.80
2019-02-27T16:20:16.152Z,27.30
2019-02-27T16:22:58.332Z,27.70
2019-02-27T16:25:40.806Z,28.20
2019-02-27T16:28:22.881Z,29.50
2019-02-27T16:31:06.369Z,34.40
2019-02-27T16:33:49.333Z,36.10
2019-02-27T16:36:36.258Z,37.80
2019-02-27T16:39:16.066Z,38.40
2019-02-27T16:42:01.017Z,39.30
2019-02-27T16:44:41.620Z,41.60
2019-02-27T16:47:23.727Z,41.80
2019-02-27T16:50:06.113Z,41.70
2019-02-27T16:52:47.806Z,42.40
2019-02-27T16:55:29.871Z,42.60
2019-02-27T16:58:12.090Z,42.20
2019-02-27T17:00:55.433Z,42.60
2019-02-27T17:03:35.978Z,43.80
2019-02-27T17:06:19.113Z,43.80
2019-02-27T17:09:00.939Z,44.30
2019-02-27T17:11:43.083Z,46.00
2019-02-27T17:14:24.954Z,47.50
2019-02-27T17:17:06.728Z,48.40
2019-02-27T17:19:48.592Z,48.10
2019-02-27T17:22:33.410Z,48.50
2019-02-27T17:25:14.231Z,48.80
2019-02-27T17:27:56.334Z,50.00
2019-02-27T17:30:38.580Z,51.10
2019-02-27T17:33:20.254Z,54.20
2019-02-27T17:36:02.265Z,56.50
2019-02-27T17:38:45.264Z,55.90
2019-02-27T17:41:28.250Z,53.80
2019-02-27T17:44:10.151Z,53.00
2019-02-27T17:46:54.832Z,51.10
2019-02-27T17:49:35.915Z,51.30
2019-02-27T17:52:17.783Z,52.20
2019-02-27T17:54:59.810Z,52.10
2019-02-27T17:57:42.260Z,52.90
2019-02-27T18:00:31.156Z,55.70
2019-02-27T18:03:22.029Z,54.30
2019-02-27T18:06:05.726Z,55.00
2019-02-27T18:08:51.577Z,56.50
2019-02-27T18:11:32.491Z,59.70
2019-02-27T18:14:14.527Z,62.00
2019-02-27T18:17:03.822Z,58.00
2019-02-27T18:19:54.825Z,57.70
2019-02-27T18:22:38.387Z,57.30
2019-02-27T18:25:20.247Z,57.90
2019-02-27T18:28:02.124Z,58.40
2019-02-27T18:30:44.178Z,58.60
2019-02-27T18:33:25.794Z,58.80
2019-02-27T18:36:07.453Z,59.00
2019-02-27T18:38:49.400Z,59.30
2019-02-27T18:41:31.210Z,59.60
2019-02-27T18:44:12.878Z,59.00
2019-02-27T18:46:56.176Z,58.90
2019-02-27T18:49:44.488Z,58.90
2019-02-27T18:52:26.165Z,59.10
2019-02-27T18:54:56.583Z,60.20
2019-02-27T18:57:47.706Z,61.20
2019-02-27T19:00:33.400Z,61.70
2019-02-27T19:03:15.502Z,62.20
2019-02-27T19:05:45.900Z,63.00
2019-02-27T19:08:36.784Z,63.70
2019-02-27T19:11:22.301Z,64.70
2019-02-27T19:14:05.829Z,65.60
2019-02-27T19:16:48.145Z,65.70
2019-02-27T19:19:29.838Z,66.10
2019-02-27T19:22:11.932Z,66.70
2019-02-27T19:24:53.850Z,67.60
2019-02-27T19:27:37.569Z,67.70
2019-02-27T19:30:19.618Z,68.00
2019-02-27T19:33:02.103Z,68.50
2019-02-27T19:35:32.468Z,68.70
2019-02-27T19:38:23.362Z,69.40
2019-02-27T19:41:06.922Z,69.40
2019-02-27T19:43:55.007Z,69.70
2019-02-27T19:46:33.537Z,69.40
2019-02-27T19:49:15.638Z,69.00
2019-02-27T19:51:57.264Z,69.10
2019-02-27T19:54:39.162Z,70.30
2019-02-27T19:57:21.450Z,71.50
2019-02-27T20:00:03.194Z,72.40
2019-02-27T20:02:45.146Z,84.50
2019-02-27T20:05:27.058Z,84.30
2019-02-27T20:08:10.806Z,82.30
2019-02-27T20:10:52.911Z,78.20
2019-02-27T20:13:33.371Z,78.40
2019-02-27T20:16:03.697Z,79.70
2019-02-27T20:18:54.542Z,80.90
2019-02-27T20:21:31.685Z,82.10
2019-02-27T20:24:14.740Z,82.00
2019-02-27T20:26:57.143Z,82.90
2019-02-27T20:29:40.574Z,82.60
2019-02-27T20:32:28.371Z,82.40
2019-02-27T20:35:07.643Z,82.00
2019-02-27T20:37:49.832Z,82.60
2019-02-27T20:43:21.826Z,83.50
2019-02-27T20:45:54.666Z,84.30
2019-02-27T20:48:48.523Z,84.60
2019-02-27T20:51:30.390Z,85.40
2019-02-27T20:54:12.919Z,85.60
2019-02-27T20:56:56.490Z,86.40
2019-02-27T20:59:38.390Z,86.10
2019-02-27T21:02:09.882Z,87.70
2019-02-27T21:07:53.407Z,89.80
2019-02-27T21:10:38.090Z,90.30
2019-02-27T21:13:20.564Z,90.20
2019-02-27T21:16:03.949Z,90.60
2019-02-27T21:18:46.943Z,90.70
2019-02-27T21:21:29.062Z,90.90
2019-02-27T21:24:11.354Z,90.90
2019-02-27T21:26:54.194Z,91.00
2019-02-27T21:29:36.123Z,91.40
2019-02-27T21:32:20.795Z,98.40
2019-02-27T21:35:03.432Z,93.00
2019-02-27T21:37:45.787Z,92.00
2019-02-27T21:40:27.633Z,92.40
2019-02-27T21:43:09.479Z,92.60
2019-02-27T21:45:51.621Z,92.50
2019-02-27T21:48:33.540Z,93.30
2019-02-27T21:51:15.519Z,93.80
2019-02-27T21:53:56.014Z,94.10
2019-02-27T21:59:46.911Z,94.90
2019-02-27T22:02:30.060Z,95.60
2019-02-27T22:05:18.665Z,95.70
2019-02-27T22:07:56.631Z,96.00
2019-02-27T22:10:39.640Z,96.40
2019-02-27T22:13:29.473Z,97.30
2019-02-27T22:16:05.501Z,96.90
2019-02-27T22:18:47.870Z,96.90
2019-02-27T22:21:34.183Z,97.30
2019-02-27T22:24:20.720Z,97.30
2019-02-27T22:27:00.158Z,97.10
2019-02-27T22:29:42.287Z,96.90
2019-02-27T22:32:25.198Z,99.90
2019-02-27T22:35:07.106Z,98.10
2019-02-27T22:37:52.375Z,97.40
2019-02-27T22:40:33.667Z,97.30
2019-02-27T22:43:15.808Z,98.00
2019-02-27T22:45:56.226Z,98.40
2019-02-27T22:48:45.668Z,98.70
2019-02-27T22:51:29.553Z,98.90
2019-02-27T22:54:11.466Z,98.80
2019-02-27T22:56:53.268Z,98.40
2019-02-27T22:59:37.339Z,98.20
2019-02-27T23:02:21.605Z,98.60
2019-02-27T23:05:04.922Z,98.60
2019-02-27T23:07:48.149Z,98.90
2019-02-27T23:10:30.992Z,99.10
2019-02-27T23:13:21.231Z,99.20
2019-02-27T23:16:04.785Z,99.30
2019-02-27T23:18:46.814Z,99.40
2019-02-27T23:21:28.875Z,99.60
2019-02-27T23:23:59.361Z,99.80
2019-02-27T23:26:54.331Z,99.90
2019-02-27T23:29:40.516Z,99.90
2019-02-27T23:32:10.966Z,99.90
2019-02-27T23:35:01.860Z,99.90
2019-02-27T23:37:32.311Z,99.90
2019-02-27T23:40:23.225Z,99.90
2019-02-27T23:43:06.513Z,99.90
2019-02-27T23:45:48.388Z,99.90
2019-02-27T23:48:30.039Z,99.90
2019-02-27T23:51:15.827Z,99.90
2019-02-27T23:53:55.330Z,99.90
2019-02-27T23:56:37.282Z,99.90
2019-02-27T23:59:19.606Z,99.90
